createdAt,value
2018-09-25T00:01:41.004Z,21.00
2018-09-25T00:05:43.024Z,21.00
2018-09-25T00:09:44.898Z,21.00
2018-09-25T00:13:46.750Z,20.90
2018-09-25T00:17:48.805Z,20.90
2018-09-25T00:21:50.306Z,20.90
2018-09-25T00:25:52.191Z,20.90
2018-09-25T00:29:54.379Z,20.70
2018-09-25T00:33:57.400Z,20.70
2018-09-25T00:37:58.853Z,20.60
2018-09-25T00:42:00.650Z,20.50
2018-09-25T00:46:02.479Z,20.50
2018-09-25T00:50:04.182Z,20.50
2018-09-25T00:54:06.009Z,20.40
2018-09-25T00:58:07.729Z,20.40
2018-09-25T01:02:09.452Z,20.40
2018-09-25T01:06:11.381Z,20.40
2018-09-25T01:10:13.083Z,20.40
2018-09-25T01:14:14.752Z,20.40
2018-09-25T01:18:16.360Z,20.40
2018-09-25T01:22:18.148Z,20.40
2018-09-25T01:26:19.703Z,20.40
2018-09-25T01:30:21.476Z,20.30
2018-09-25T01:34:23.191Z,20.30
2018-09-25T01:38:24.949Z,20.30
2018-09-25T01:42:26.334Z,20.30
2018-09-25T01:46:27.919Z,20.30
2018-09-25T01:50:29.492Z,20.30
2018-09-25T01:54:31.149Z,20.30
2018-09-25T01:58:32.893Z,20.30
2018-09-25T02:02:41.331Z,20.30
2018-09-25T02:06:43.053Z,20.30
2018-09-25T02:10:45.058Z,20.20
2018-09-25T02:14:46.814Z,20.20
2018-09-25T02:18:48.536Z,20.20
2018-09-25T02:22:50.219Z,20.20
2018-09-25T02:26:51.784Z,20.20
2018-09-25T02:30:54.689Z,20.20
2018-09-25T02:34:56.453Z,20.20
2018-09-25T02:38:57.997Z,20.20
2018-09-25T02:42:59.744Z,20.20
2018-09-25T02:47:01.621Z,20.20
2018-09-25T02:51:03.560Z,20.20
2018-09-25T02:55:05.270Z,20.10
2018-09-25T02:59:06.872Z,20.10
2018-09-25T03:03:08.977Z,20.10
2018-09-25T03:07:10.679Z,20.10
2018-09-25T03:11:12.624Z,20.10
2018-09-25T03:15:14.537Z,20.10
2018-09-25T03:19:16.179Z,20.10
2018-09-25T03:23:17.812Z,20.10
2018-09-25T03:27:19.715Z,20.10
2018-09-25T03:31:21.400Z,20.10
2018-09-25T03:35:23.487Z,20.10
2018-09-25T03:39:25.132Z,20.10
2018-09-25T03:43:26.903Z,20.10
2018-09-25T03:47:28.864Z,20.10
2018-09-25T03:51:30.587Z,20.10
2018-09-25T03:55:32.370Z,20.10
2018-09-25T03:59:38.969Z,20.10
2018-09-25T04:03:40.821Z,20.00
2018-09-25T04:07:42.745Z,20.00
2018-09-25T04:11:46.930Z,20.00
2018-09-25T04:15:48.745Z,20.00
2018-09-25T04:19:50.544Z,20.00
2018-09-25T04:23:51.989Z,20.00
2018-09-25T04:27:53.614Z,20.00
2018-09-25T04:31:55.181Z,20.00
2018-09-25T04:35:56.868Z,20.00
2018-09-25T04:39:58.491Z,20.00
2018-09-25T04:44:00.398Z,20.00
2018-09-25T04:48:02.075Z,20.00
2018-09-25T04:52:03.975Z,20.00
2018-09-25T04:56:08.184Z,20.00
2018-09-25T05:00:10.129Z,20.00
2018-09-25T05:04:11.620Z,20.00
2018-09-25T05:08:13.077Z,20.00
2018-09-25T05:12:14.801Z,20.00
2018-09-25T05:16:16.350Z,20.00
2018-09-25T05:20:18.040Z,20.00
2018-09-25T05:24:19.816Z,20.00
2018-09-25T05:28:21.841Z,20.00
2018-09-25T05:32:23.630Z,20.00
2018-09-25T05:36:25.320Z,19.90
2018-09-25T05:40:34.196Z,20.00
2018-09-25T05:44:36.009Z,20.00
2018-09-25T05:52:57.393Z,19.90
2018-09-25T05:56:59.528Z,19.90
2018-09-25T06:01:01.285Z,19.90
2018-09-25T06:05:04.066Z,19.90
2018-09-25T06:09:07.529Z,19.90
2018-09-25T06:13:09.369Z,19.90
2018-09-25T06:17:11.073Z,20.10
2018-09-25T06:21:12.863Z,20.20
2018-09-25T06:25:14.698Z,20.30
2018-09-25T06:29:29.488Z,20.30
2018-09-25T06:33:31.269Z,20.30
2018-09-25T06:37:32.867Z,20.40
2018-09-25T06:41:34.536Z,20.50
2018-09-25T06:45:36.452Z,20.50
2018-09-25T06:49:38.221Z,20.50
2018-09-25T06:53:40.026Z,20.50
2018-09-25T06:57:44.893Z,20.40
2018-09-25T07:01:46.977Z,20.30
2018-09-25T07:05:48.510Z,20.30
2018-09-25T07:09:50.403Z,20.30
2018-09-25T07:13:52.138Z,20.40
2018-09-25T07:17:53.893Z,20.40
2018-09-25T07:21:55.439Z,20.30
2018-09-25T07:25:57.253Z,20.20
2018-09-25T07:29:58.989Z,20.10
2018-09-25T07:34:00.998Z,20.10
2018-09-25T07:38:04.667Z,20.10
2018-09-25T07:42:09.031Z,20.00
2018-09-25T07:46:10.733Z,20.10
2018-09-25T07:50:27.114Z,20.00
2018-09-25T07:54:28.900Z,20.00
2018-09-25T07:58:30.861Z,20.00
2018-09-25T08:02:35.178Z,20.00
2018-09-25T08:06:37.037Z,20.00
2018-09-25T08:10:38.691Z,20.00
2018-09-25T08:14:40.419Z,20.00
2018-09-25T08:18:42.596Z,20.00
2018-09-25T08:22:44.151Z,20.00
2018-09-25T08:26:52.556Z,20.00
2018-09-25T08:30:54.372Z,20.00
2018-09-25T08:34:56.088Z,20.00
2018-09-25T08:38:57.876Z,20.00
2018-09-25T08:42:59.598Z,20.00
2018-09-25T08:47:01.197Z,20.00
2018-09-25T08:51:02.937Z,20.00
2018-09-25T08:55:04.637Z,20.00
2018-09-25T08:59:06.722Z,20.00
2018-09-25T09:03:08.402Z,20.00
2018-09-25T09:07:10.454Z,20.00
2018-09-25T09:11:12.177Z,20.00
2018-09-25T09:15:13.872Z,20.00
2018-09-25T09:19:15.569Z,20.00
2018-09-25T09:23:17.170Z,20.00
2018-09-25T09:27:19.138Z,20.10
2018-09-25T09:31:27.108Z,20.10
2018-09-25T09:35:29.870Z,20.10
2018-09-25T09:39:31.468Z,20.10
2018-09-25T09:43:33.428Z,20.10
2018-09-25T09:47:35.032Z,20.00
2018-09-25T09:51:36.473Z,20.00
2018-09-25T09:55:38.746Z,20.00
2018-09-25T09:59:40.616Z,20.10
2018-09-25T10:03:42.443Z,20.10
2018-09-25T10:07:44.373Z,20.10
2018-09-25T10:11:46.229Z,20.20
2018-09-25T10:15:48.014Z,20.20
2018-09-25T10:19:49.682Z,20.20
2018-09-25T10:23:51.532Z,20.20
2018-09-25T10:27:53.236Z,20.20
2018-09-25T10:31:55.140Z,20.20
2018-09-25T10:35:56.856Z,20.10
2018-09-25T10:39:58.796Z,20.10
2018-09-25T10:44:02.146Z,20.10
2018-09-25T10:48:04.272Z,20.10
2018-09-25T10:52:05.990Z,20.30
2018-09-25T10:56:07.945Z,20.40
2018-09-25T11:00:09.538Z,20.50
2018-09-25T11:04:11.543Z,20.60
2018-09-25T11:08:15.259Z,20.70
2018-09-25T11:12:17.180Z,20.70
2018-09-25T11:16:19.057Z,20.70
2018-09-25T11:20:21.442Z,20.70
2018-09-25T11:24:23.339Z,20.70
2018-09-25T11:28:25.923Z,20.70
2018-09-25T11:32:27.865Z,20.70
2018-09-25T11:36:29.468Z,20.70
2018-09-25T11:47:03.079Z,20.70
2018-09-25T11:51:07.325Z,20.90
2018-09-25T11:55:09.159Z,21.00
2018-09-25T11:59:10.993Z,20.90
2018-09-25T12:03:13.040Z,20.90
2018-09-25T12:07:14.605Z,20.90
2018-09-25T12:11:16.846Z,21.00
2018-09-25T12:15:18.593Z,21.00
2018-09-25T12:19:20.327Z,21.00
2018-09-25T12:23:22.251Z,21.00
2018-09-25T12:27:25.828Z,21.00
2018-09-25T12:31:27.685Z,21.10
2018-09-25T12:35:30.037Z,21.10
2018-09-25T12:39:32.006Z,21.10
2018-09-25T12:43:33.748Z,21.10
2018-09-25T12:47:35.535Z,21.10
2018-09-25T12:51:37.994Z,21.00
2018-09-25T12:55:39.718Z,21.00
2018-09-25T12:59:41.683Z,21.00
2018-09-25T13:03:44.348Z,21.00
2018-09-25T13:07:47.000Z,21.00
2018-09-25T13:11:49.812Z,21.00
2018-09-25T13:15:51.506Z,21.00
2018-09-25T13:19:53.229Z,21.00
2018-09-25T13:23:55.080Z,21.00
2018-09-25T13:27:56.765Z,21.00
2018-09-25T13:31:58.616Z,21.00
2018-09-25T13:36:02.025Z,21.00
2018-09-25T13:40:14.965Z,20.90
2018-09-25T13:44:21.331Z,21.00
2018-09-25T13:48:23.779Z,21.00
2018-09-25T13:52:25.585Z,20.90
2018-09-25T13:56:27.672Z,20.90
2018-09-25T14:00:30.888Z,20.90
2018-09-25T14:04:32.525Z,20.80
2018-09-25T14:08:34.319Z,20.80
2018-09-25T14:12:37.352Z,20.70
2018-09-25T14:16:38.991Z,20.70
2018-09-25T14:20:40.933Z,20.70
2018-09-25T14:24:43.713Z,20.70
2018-09-25T14:28:45.374Z,20.70
2018-09-25T14:32:47.081Z,20.70
2018-09-25T14:36:48.690Z,20.70
2018-09-25T14:40:50.542Z,20.80
2018-09-25T14:44:52.756Z,20.90
2018-09-25T14:48:54.869Z,20.90
2018-09-25T14:52:56.926Z,20.90
2018-09-25T14:56:58.726Z,20.80
2018-09-25T15:01:00.966Z,20.70
2018-09-25T15:05:02.713Z,20.70
2018-09-25T15:09:05.574Z,20.70
2018-09-25T15:13:07.471Z,20.60
2018-09-25T15:17:09.555Z,20.70
2018-09-25T15:21:11.692Z,20.60
2018-09-25T15:25:14.552Z,20.70
2018-09-25T15:29:16.053Z,20.80
2018-09-25T15:33:18.492Z,20.80
2018-09-25T15:37:20.181Z,20.90
2018-09-25T15:41:21.858Z,20.90
2018-09-25T15:45:24.928Z,20.90
2018-09-25T15:49:26.649Z,20.90
2018-09-25T15:53:33.959Z,20.80
2018-09-25T15:57:37.526Z,20.90
2018-09-25T16:01:39.593Z,20.90
2018-09-25T16:05:41.243Z,20.90
2018-09-25T16:09:43.117Z,21.00
2018-09-25T16:13:44.908Z,21.00
2018-09-25T16:17:48.321Z,21.00
2018-09-25T16:21:50.902Z,20.90
2018-09-25T16:25:52.380Z,20.90
2018-09-25T16:29:54.052Z,20.90
2018-09-25T16:33:55.805Z,20.90
2018-09-25T16:37:57.514Z,20.90
2018-09-25T16:41:59.039Z,20.90
2018-09-25T16:46:00.893Z,20.90
2018-09-25T16:50:02.725Z,20.90
2018-09-25T16:54:04.998Z,20.90
2018-09-25T16:58:06.971Z,20.90
2018-09-25T17:02:09.807Z,20.90
2018-09-25T17:06:15.364Z,20.90
2018-09-25T17:10:17.364Z,20.90
2018-09-25T17:14:19.109Z,20.90
2018-09-25T17:18:20.779Z,20.90
2018-09-25T17:22:22.871Z,20.80
2018-09-25T17:26:25.922Z,20.90
2018-09-25T17:30:27.667Z,20.90
2018-09-25T17:34:29.649Z,21.00
2018-09-25T17:38:31.352Z,21.00
2018-09-25T17:42:33.085Z,21.00
2018-09-25T17:46:35.605Z,21.00
2018-09-25T17:50:37.312Z,21.00
2018-09-25T17:54:39.187Z,20.90
2018-09-25T17:58:41.032Z,21.00
2018-09-25T18:02:43.078Z,21.00
2018-09-25T18:06:44.695Z,21.00
2018-09-25T18:10:46.220Z,21.00
2018-09-25T18:14:48.711Z,21.00
2018-09-25T18:18:50.460Z,21.00
2018-09-25T18:22:52.648Z,21.00
2018-09-25T18:26:54.881Z,21.00
2018-09-25T18:30:56.733Z,21.00
2018-09-25T18:34:58.377Z,21.00
2018-09-25T18:39:00.084Z,20.90
2018-09-25T18:43:01.780Z,20.90
2018-09-25T18:47:03.613Z,20.90
2018-09-25T18:51:05.313Z,20.90
2018-09-25T18:55:07.134Z,20.90
2018-09-25T18:59:08.954Z,21.00
2018-09-25T19:03:10.572Z,21.00
2018-09-25T19:07:12.358Z,20.90
2018-09-25T19:11:14.246Z,21.00
2018-09-25T19:15:16.476Z,21.00
2018-09-25T19:19:18.180Z,21.00
2018-09-25T19:23:19.952Z,20.90
2018-09-25T19:27:21.867Z,20.90
2018-09-25T19:31:24.880Z,21.00
2018-09-25T19:35:26.529Z,21.10
2018-09-25T19:39:28.205Z,21.20
2018-09-25T19:43:29.997Z,21.10
2018-09-25T19:47:31.866Z,21.00
2018-09-25T19:51:33.978Z,21.00
2018-09-25T19:55:35.506Z,21.00
2018-09-25T19:59:37.120Z,20.90
2018-09-25T20:03:38.982Z,20.80
2018-09-25T20:07:40.672Z,20.70
2018-09-25T20:11:42.728Z,20.70
2018-09-25T20:15:44.637Z,20.70
2018-09-25T20:19:46.578Z,20.90
2018-09-25T20:23:48.023Z,21.00
2018-09-25T20:27:49.641Z,21.10
2018-09-25T20:31:51.933Z,21.00
2018-09-25T20:35:53.579Z,21.00
2018-09-25T20:39:55.340Z,21.00
2018-09-25T20:43:57.285Z,21.00
2018-09-25T20:47:59.177Z,21.00
2018-09-25T20:52:01.884Z,21.00
2018-09-25T20:56:03.671Z,21.00
2018-09-25T21:00:05.393Z,20.90
2018-09-25T21:04:06.965Z,21.00
2018-09-25T21:08:08.651Z,21.00
2018-09-25T21:12:10.635Z,21.00
2018-09-25T21:16:12.536Z,21.00
2018-09-25T21:20:14.379Z,21.00
2018-09-25T21:24:16.122Z,21.00
2018-09-25T21:28:17.870Z,20.90
2018-09-25T21:32:19.497Z,20.90
2018-09-25T21:36:21.113Z,20.90
2018-09-25T21:40:22.769Z,20.90
2018-09-25T21:44:24.336Z,20.90
2018-09-25T21:48:26.016Z,21.00
2018-09-25T21:52:27.681Z,20.90
2018-09-25T21:56:29.438Z,20.90
2018-09-25T22:00:31.056Z,20.90
2018-09-25T22:04:32.799Z,20.80
2018-09-25T22:08:34.336Z,20.90
2018-09-25T22:12:36.061Z,20.90
2018-09-25T22:16:37.909Z,21.10
2018-09-25T22:20:39.708Z,21.00
2018-09-25T22:24:41.848Z,21.00
2018-09-25T22:28:43.548Z,21.00
2018-09-25T22:32:45.429Z,21.00
2018-09-25T22:36:47.225Z,20.90
2018-09-25T22:40:48.970Z,20.80
2018-09-25T22:44:50.692Z,20.60
2018-09-25T22:48:52.356Z,20.50
2018-09-25T22:52:53.869Z,20.50
2018-09-25T22:56:55.576Z,20.40
2018-09-25T23:00:57.377Z,20.30
2018-09-25T23:04:59.378Z,20.30
2018-09-25T23:09:01.597Z,20.20
2018-09-25T23:13:03.354Z,20.20
2018-09-25T23:17:05.421Z,20.20
2018-09-25T23:21:07.588Z,20.20
2018-09-25T23:25:09.195Z,20.20
2018-09-25T23:29:10.914Z,20.10
2018-09-25T23:33:12.495Z,20.10
2018-09-25T23:37:14.536Z,20.10
2018-09-25T23:41:16.339Z,20.10
2018-09-25T23:45:21.888Z,20.10
2018-09-25T23:49:21.461Z,20.10
2018-09-25T23:54:20.651Z,20.10
2018-09-25T23:58:28.173Z,20.00
